createdAt,value
2023-05-20T00:00:16.308Z,99.15
2023-05-20T00:02:48.864Z,99.34
2023-05-20T00:05:27.871Z,99.29
2023-05-20T00:07:57.717Z,99.66
2023-05-20T00:10:27.581Z,100.00
2023-05-20T00:12:58.707Z,100.00
2023-05-20T00:15:31.457Z,100.00
2023-05-20T00:18:05.626Z,100.00
2023-05-20T00:20:37.918Z,100.00
2023-05-20T00:23:10.082Z,100.00
2023-05-20T00:25:46.491Z,100.00
2023-05-20T00:28:21.469Z,100.00
2023-05-20T00:31:04.039Z,100.00
2023-05-20T00:33:40.304Z,100.00
2023-05-20T00:36:14.161Z,100.00
2023-05-20T00:38:48.198Z,100.00
2023-05-20T00:41:18.055Z,100.00
2023-05-20T00:43:50.574Z,100.00
2023-05-20T00:46:23.097Z,100.00
2023-05-20T00:48:57.380Z,100.00
2023-05-20T00:51:34.088Z,100.00
2023-05-20T00:54:04.074Z,100.00
2023-05-20T00:56:34.849Z,100.00
2023-05-20T00:59:08.439Z,100.00
2023-05-20T01:01:42.337Z,100.00
2023-05-20T01:04:23.354Z,100.00
2023-05-20T01:06:53.302Z,100.00
2023-05-20T01:09:24.627Z,100.00
2023-05-20T01:12:10.841Z,100.00
2023-05-20T01:14:49.716Z,100.00
2023-05-20T01:17:27.474Z,100.00
2023-05-20T01:20:12.534Z,100.00
2023-05-20T01:31:22.864Z,100.00
2023-05-20T01:34:10.510Z,100.00
2023-05-20T01:36:41.947Z,100.00
2023-05-20T01:39:24.501Z,100.00
2023-05-20T01:41:54.784Z,100.00
2023-05-20T01:44:27.377Z,100.00
2023-05-20T01:47:00.058Z,100.00
2023-05-20T01:49:36.618Z,100.00
2023-05-20T01:52:08.213Z,100.00
2023-05-20T01:54:41.126Z,100.00
2023-05-20T01:57:13.882Z,100.00
2023-05-20T01:59:51.872Z,100.00
2023-05-20T02:02:24.462Z,100.00
2023-05-20T02:07:44.736Z,100.00
2023-05-20T02:10:17.910Z,100.00
2023-05-20T02:18:53.599Z,100.00
2023-05-20T02:21:35.390Z,100.00
2023-05-20T02:35:30.608Z,100.00
2023-05-20T02:38:25.513Z,99.96
2023-05-20T02:41:04.742Z,99.76
2023-05-20T02:43:34.888Z,99.89
2023-05-20T02:46:07.906Z,99.64
2023-05-20T02:48:37.773Z,99.53
2023-05-20T02:51:08.312Z,99.43
2023-05-20T02:53:40.981Z,99.36
2023-05-20T02:56:19.642Z,99.06
2023-05-20T02:59:01.575Z,98.90
2023-05-20T03:01:31.651Z,98.77
2023-05-20T03:04:01.582Z,98.38
2023-05-20T03:06:34.420Z,98.21
2023-05-20T03:09:10.294Z,98.11
2023-05-20T03:11:46.503Z,97.76
2023-05-20T03:14:19.856Z,97.31
2023-05-20T03:16:50.913Z,97.02
2023-05-20T03:19:23.918Z,96.68
2023-05-20T03:21:53.952Z,96.25
2023-05-20T03:24:26.610Z,95.83
2023-05-20T03:26:59.543Z,95.65
2023-05-20T03:29:38.000Z,95.20
2023-05-20T03:32:11.901Z,94.84
2023-05-20T03:34:45.899Z,94.28
2023-05-20T03:37:20.895Z,93.67
2023-05-20T03:39:54.708Z,93.49
2023-05-20T03:42:30.809Z,93.32
2023-05-20T03:45:13.633Z,93.02
2023-05-20T03:47:45.910Z,92.48
2023-05-20T03:50:20.118Z,92.29
2023-05-20T03:52:52.159Z,92.08
2023-05-20T03:55:28.490Z,91.92
2023-05-20T03:57:59.238Z,91.63
2023-05-20T04:00:30.820Z,91.32
2023-05-20T04:03:04.993Z,90.97
2023-05-20T04:05:36.681Z,91.00
2023-05-20T04:08:07.771Z,90.90
2023-05-20T04:10:40.311Z,90.54
2023-05-20T04:13:10.161Z,90.25
2023-05-20T04:15:40.144Z,90.28
2023-05-20T04:18:14.111Z,90.20
2023-05-20T04:20:44.180Z,90.07
2023-05-20T04:23:15.637Z,89.97
2023-05-20T04:25:49.038Z,90.00
2023-05-20T04:28:19.152Z,90.03
2023-05-20T04:31:04.816Z,90.03
2023-05-20T04:33:48.052Z,89.74
2023-05-20T04:36:20.667Z,89.64
2023-05-20T04:38:50.567Z,89.67
2023-05-20T04:41:23.016Z,89.57
2023-05-20T04:43:53.756Z,89.55
2023-05-20T04:46:26.222Z,89.43
2023-05-20T04:49:05.120Z,89.42
2023-05-20T04:51:37.832Z,89.41
2023-05-20T04:54:10.697Z,89.40
2023-05-20T04:56:52.001Z,89.32
2023-05-20T04:59:24.254Z,89.28
2023-05-20T05:18:34.389Z,86.04
2023-05-20T05:21:07.205Z,85.05
2023-05-20T05:23:43.146Z,84.63
2023-05-20T05:26:14.542Z,83.75
2023-05-20T05:28:47.448Z,82.44
2023-05-20T05:31:18.420Z,81.27
2023-05-20T05:41:46.527Z,79.15
2023-05-20T05:44:17.181Z,78.52
2023-05-20T05:46:47.066Z,78.37
2023-05-20T05:49:20.853Z,77.67
2023-05-20T05:51:50.919Z,77.75
2023-05-20T05:54:21.270Z,77.34
2023-05-20T05:57:01.994Z,77.03
2023-05-20T05:59:31.866Z,77.02
2023-05-20T06:02:04.217Z,76.88
2023-05-20T06:04:34.114Z,76.40
2023-05-20T06:07:06.976Z,76.22
2023-05-20T06:09:43.859Z,76.07
2023-05-20T06:12:23.514Z,75.82
2023-05-20T06:15:02.488Z,75.93
2023-05-20T06:17:32.460Z,75.88
2023-05-20T06:20:04.756Z,75.99
2023-05-20T06:22:34.642Z,76.19
2023-05-20T06:25:07.151Z,76.56
2023-05-20T06:27:44.319Z,76.71
2023-05-20T06:30:22.497Z,77.09
2023-05-20T06:32:52.511Z,77.62
2023-05-20T06:35:22.480Z,78.00
2023-05-20T06:37:58.725Z,78.02
2023-05-20T06:40:28.998Z,78.44
2023-05-20T06:43:01.516Z,77.76
2023-05-20T06:45:35.721Z,77.40
2023-05-20T06:48:05.839Z,77.46
2023-05-20T06:50:35.747Z,77.36
2023-05-20T06:53:08.947Z,77.18
2023-05-20T06:55:40.169Z,77.04
2023-05-20T06:58:19.994Z,77.43
2023-05-20T07:03:37.462Z,77.75
2023-05-20T07:06:09.028Z,77.78
2023-05-20T07:08:40.088Z,77.92
2023-05-20T07:11:15.439Z,77.81
2023-05-20T07:13:53.754Z,78.05
2023-05-20T07:16:23.643Z,77.71
2023-05-20T07:18:55.423Z,77.96
2023-05-20T07:21:26.861Z,77.96
2023-05-20T07:23:59.361Z,77.46
2023-05-20T07:26:31.025Z,77.82
2023-05-20T07:29:04.300Z,77.55
2023-05-20T07:31:38.508Z,77.59
2023-05-20T07:34:10.587Z,77.46
2023-05-20T07:36:40.546Z,77.28
2023-05-20T07:39:24.664Z,77.34
2023-05-20T07:42:02.972Z,77.30
2023-05-20T07:44:35.496Z,77.66
2023-05-20T07:47:08.137Z,77.58
2023-05-20T07:49:42.991Z,77.40
2023-05-20T07:52:13.072Z,77.79
2023-05-20T07:54:47.070Z,77.78
2023-05-20T07:57:18.569Z,77.09
2023-05-20T07:59:53.540Z,77.09
2023-05-20T08:02:23.498Z,76.96
2023-05-20T08:04:53.407Z,77.24
2023-05-20T08:07:25.883Z,76.30
2023-05-20T08:09:59.094Z,76.23
2023-05-20T08:12:28.941Z,75.93
2023-05-20T08:15:01.392Z,76.38
2023-05-20T08:17:31.261Z,76.12
2023-05-20T08:20:01.192Z,76.40
2023-05-20T08:22:31.620Z,75.97
2023-05-20T08:25:01.464Z,75.76
2023-05-20T08:27:31.308Z,75.56
2023-05-20T08:30:04.587Z,75.70
2023-05-20T08:32:34.676Z,75.58
2023-05-20T08:35:04.644Z,75.71
2023-05-20T08:37:34.542Z,75.14
2023-05-20T08:40:05.429Z,74.64
2023-05-20T08:42:36.984Z,74.78
2023-05-20T08:45:14.024Z,74.66
2023-05-20T08:47:46.392Z,75.17
2023-05-20T08:50:17.523Z,75.34
2023-05-20T08:52:49.285Z,75.20
2023-05-20T08:55:27.420Z,75.44
2023-05-20T08:57:58.274Z,75.81
2023-05-20T09:00:30.791Z,76.19
2023-05-20T09:03:02.887Z,76.31
2023-05-20T09:05:33.176Z,76.85
2023-05-20T09:08:10.046Z,76.88
2023-05-20T09:10:40.974Z,77.10
2023-05-20T09:13:12.393Z,78.01
2023-05-20T09:15:44.897Z,78.25
2023-05-20T09:18:15.046Z,78.24
2023-05-20T09:20:45.189Z,77.88
2023-05-20T09:23:15.017Z,77.92
2023-05-20T09:25:44.920Z,77.96
2023-05-20T09:28:14.766Z,78.69
2023-05-20T09:30:47.256Z,79.08
2023-05-20T09:33:17.151Z,79.08
2023-05-20T09:35:50.006Z,79.47
2023-05-20T09:38:20.834Z,79.99
2023-05-20T09:40:51.639Z,80.54
2023-05-20T09:43:21.899Z,80.56
2023-05-20T09:46:07.607Z,80.55
2023-05-20T09:48:39.372Z,80.63
2023-05-20T09:51:14.019Z,81.32
2023-05-20T09:53:45.537Z,81.28
2023-05-20T09:56:15.743Z,81.68
2023-05-20T09:58:49.769Z,81.88
2023-05-20T10:01:32.625Z,82.34
2023-05-20T10:04:09.709Z,82.45
2023-05-20T10:06:57.509Z,82.07
2023-05-20T10:09:42.243Z,82.54
2023-05-20T10:12:25.434Z,82.32
2023-05-20T10:15:09.061Z,82.61
2023-05-20T10:17:50.509Z,82.86
2023-05-20T10:20:23.134Z,82.91
2023-05-20T10:23:01.023Z,83.28
2023-05-20T10:25:32.537Z,83.51
2023-05-20T10:28:12.035Z,83.20
2023-05-20T10:30:54.851Z,83.11
2023-05-20T10:33:47.375Z,83.85
2023-05-20T10:36:27.993Z,83.70
2023-05-20T10:38:59.558Z,83.87
2023-05-20T10:41:31.583Z,84.49
2023-05-20T10:44:07.539Z,84.54
2023-05-20T10:47:00.021Z,84.47
2023-05-20T10:49:37.854Z,84.62
2023-05-20T10:52:10.308Z,84.50
2023-05-20T10:54:48.635Z,84.18
2023-05-20T10:57:23.157Z,84.53
2023-05-20T10:59:53.280Z,85.09
2023-05-20T11:02:27.358Z,84.68
2023-05-20T11:05:00.107Z,84.71
2023-05-20T11:07:30.743Z,84.64
2023-05-20T11:10:01.121Z,84.90
2023-05-20T11:12:31.350Z,84.92
2023-05-20T11:15:01.286Z,85.07
2023-05-20T11:17:32.625Z,85.15
2023-05-20T11:20:10.010Z,84.92
2023-05-20T11:22:42.802Z,84.59
2023-05-20T11:25:13.874Z,84.59
2023-05-20T11:27:43.837Z,84.86
2023-05-20T11:30:19.916Z,84.68
2023-05-20T11:33:02.558Z,85.16
2023-05-20T11:35:47.780Z,85.20
2023-05-20T11:38:21.951Z,85.12
2023-05-20T11:40:55.886Z,85.31
2023-05-20T11:43:30.325Z,85.45
2023-05-20T11:46:01.423Z,85.20
2023-05-20T11:48:34.367Z,85.14
2023-05-20T11:51:11.556Z,85.20
2023-05-20T11:53:44.086Z,84.99
2023-05-20T11:56:14.305Z,85.13
2023-05-20T11:58:47.262Z,85.18
2023-05-20T12:01:22.735Z,85.46
2023-05-20T12:03:53.410Z,85.14
2023-05-20T12:06:25.987Z,85.00
2023-05-20T12:08:55.826Z,85.32
2023-05-20T12:11:26.067Z,85.72
2023-05-20T12:13:59.129Z,85.42
2023-05-20T12:16:33.273Z,85.43
2023-05-20T12:19:06.386Z,85.00
2023-05-20T12:21:40.806Z,84.65
2023-05-20T12:24:20.824Z,84.55
2023-05-20T12:26:55.506Z,84.53
2023-05-20T12:29:25.479Z,84.56
2023-05-20T12:31:58.108Z,84.75
2023-05-20T12:34:38.208Z,84.46
2023-05-20T12:37:13.466Z,84.70
2023-05-20T12:39:44.473Z,84.76
2023-05-20T12:42:16.148Z,84.87
2023-05-20T12:44:48.332Z,85.08
2023-05-20T12:47:20.943Z,85.09
2023-05-20T12:49:52.506Z,85.29
2023-05-20T12:52:25.018Z,85.35
2023-05-20T12:54:59.716Z,85.46
2023-05-20T12:57:29.800Z,85.12
2023-05-20T13:00:02.830Z,85.53
2023-05-20T13:02:34.180Z,85.83
2023-05-20T13:05:04.183Z,85.47
2023-05-20T13:07:38.199Z,85.49
2023-05-20T13:10:11.649Z,85.71
2023-05-20T13:12:46.248Z,85.61
2023-05-20T13:15:18.746Z,85.21
2023-05-20T13:17:51.300Z,84.88
2023-05-20T13:20:22.937Z,85.17
2023-05-20T13:22:55.451Z,85.07
2023-05-20T13:25:25.292Z,85.16
2023-05-20T13:27:59.715Z,85.14
2023-05-20T13:30:29.600Z,84.26
2023-05-20T13:33:02.158Z,84.01
2023-05-20T13:35:33.589Z,83.84
2023-05-20T13:38:14.492Z,83.97
2023-05-20T13:40:47.503Z,83.78
2023-05-20T13:43:21.918Z,83.71
2023-05-20T13:45:57.634Z,83.71
2023-05-20T13:48:33.564Z,82.83
2023-05-20T13:51:03.427Z,82.54
2023-05-20T13:53:42.752Z,82.27
2023-05-20T13:56:13.870Z,82.91
2023-05-20T13:58:46.080Z,82.76
2023-05-20T14:01:16.960Z,82.31
2023-05-20T14:03:48.632Z,82.07
2023-05-20T14:06:25.077Z,81.83
2023-05-20T14:08:59.583Z,81.81
2023-05-20T14:11:29.451Z,81.60
2023-05-20T14:14:08.528Z,81.86
2023-05-20T14:16:39.787Z,80.90
2023-05-20T14:19:12.098Z,80.05
2023-05-20T14:21:43.436Z,78.83
2023-05-20T14:24:25.143Z,79.27
2023-05-20T14:26:55.052Z,79.59
2023-05-20T14:29:24.955Z,80.15
2023-05-20T14:31:59.278Z,80.47
2023-05-20T14:34:31.048Z,81.20
2023-05-20T14:37:07.762Z,81.35
2023-05-20T14:39:40.445Z,80.85
2023-05-20T14:42:11.306Z,80.48
2023-05-20T14:44:41.985Z,80.19
2023-05-20T14:47:11.916Z,80.47
2023-05-20T14:49:42.461Z,79.36
2023-05-20T14:52:12.350Z,79.24
2023-05-20T14:54:45.608Z,78.84
2023-05-20T14:57:16.156Z,78.36
2023-05-20T14:59:46.440Z,79.29
2023-05-20T15:02:17.205Z,79.67
2023-05-20T15:04:48.190Z,80.32
2023-05-20T15:07:18.463Z,80.66
2023-05-20T15:09:51.277Z,80.23
2023-05-20T15:12:21.153Z,79.87
2023-05-20T15:14:51.005Z,79.79
2023-05-20T15:17:20.985Z,79.09
2023-05-20T15:19:50.909Z,78.24
2023-05-20T15:22:20.953Z,77.67
2023-05-20T15:24:53.451Z,77.24
2023-05-20T15:27:23.432Z,77.26
2023-05-20T15:29:53.319Z,78.07
2023-05-20T15:32:23.405Z,78.85
2023-05-20T15:34:53.307Z,78.57
2023-05-20T15:37:23.952Z,79.08
2023-05-20T15:39:56.674Z,79.96
2023-05-20T15:42:27.165Z,80.70
2023-05-20T15:44:57.209Z,81.54
2023-05-20T15:47:27.100Z,81.67
2023-05-20T15:49:57.656Z,82.06
2023-05-20T15:52:27.566Z,81.71
2023-05-20T15:55:00.134Z,82.11
2023-05-20T15:57:30.888Z,82.62
2023-05-20T16:00:00.882Z,83.09
2023-05-20T16:02:34.712Z,83.39
2023-05-20T16:05:06.882Z,83.79
2023-05-20T16:07:46.195Z,84.09
2023-05-20T16:10:18.800Z,83.80
2023-05-20T16:12:48.762Z,83.52
2023-05-20T16:15:18.683Z,83.94
2023-05-20T16:17:48.555Z,84.15
2023-05-20T16:20:21.268Z,84.23
2023-05-20T16:22:58.183Z,84.47
2023-05-20T16:25:36.114Z,84.85
2023-05-20T16:28:08.350Z,84.92
2023-05-20T16:30:51.663Z,84.59
2023-05-20T16:33:25.508Z,84.23
2023-05-20T16:35:56.239Z,83.88
2023-05-20T16:38:28.816Z,82.90
2023-05-20T16:41:15.974Z,82.74
2023-05-20T16:43:47.173Z,82.00
2023-05-20T16:46:20.308Z,82.42
2023-05-20T16:48:51.780Z,82.59
2023-05-20T16:51:24.275Z,82.95
2023-05-20T16:53:54.140Z,82.64
2023-05-20T16:56:28.541Z,82.38
2023-05-20T16:58:58.553Z,82.16
2023-05-20T17:01:29.171Z,81.98
2023-05-20T17:03:59.278Z,82.05
2023-05-20T17:06:29.210Z,82.69
2023-05-20T17:09:05.071Z,82.94
2023-05-20T17:11:37.487Z,83.29
2023-05-20T17:14:07.365Z,83.65
2023-05-20T17:16:37.442Z,83.87
2023-05-20T17:19:08.176Z,83.80
2023-05-20T17:21:44.460Z,84.09
2023-05-20T17:24:14.480Z,84.04
2023-05-20T17:26:46.960Z,84.16
2023-05-20T17:29:17.619Z,83.91
2023-05-20T17:31:47.738Z,84.25
2023-05-20T17:34:17.711Z,84.51
2023-05-20T17:36:47.637Z,84.89
2023-05-20T17:39:17.586Z,85.19
2023-05-20T17:41:53.161Z,85.49
2023-05-20T17:44:24.589Z,85.70
2023-05-20T17:46:54.457Z,86.02
2023-05-20T17:49:24.297Z,86.14
2023-05-20T17:51:54.198Z,86.55
2023-05-20T17:54:24.097Z,87.09
2023-05-20T17:56:56.623Z,87.31
2023-05-20T17:59:26.629Z,87.28
2023-05-20T18:01:57.086Z,87.59
2023-05-20T18:04:28.129Z,87.83
2023-05-20T18:07:01.045Z,87.87
2023-05-20T18:09:30.914Z,87.89
2023-05-20T18:12:03.333Z,87.45
2023-05-20T18:14:33.176Z,87.39
2023-05-20T18:17:04.645Z,87.53
2023-05-20T18:19:39.329Z,87.39
2023-05-20T18:22:09.188Z,87.57
2023-05-20T18:24:39.091Z,87.30
2023-05-20T18:27:11.662Z,87.57
2023-05-20T18:29:41.545Z,87.66
2023-05-20T18:32:11.707Z,87.91
2023-05-20T18:34:41.626Z,88.08
2023-05-20T18:37:11.506Z,88.25
2023-05-20T18:39:41.365Z,88.55
2023-05-20T18:42:17.739Z,88.94
2023-05-20T18:44:47.590Z,88.77
2023-05-20T18:47:17.582Z,88.74
2023-05-20T18:49:47.855Z,88.96
2023-05-20T18:52:17.740Z,89.26
2023-05-20T18:54:47.590Z,89.22
2023-05-20T18:57:20.084Z,89.18
2023-05-20T18:59:49.970Z,89.24
2023-05-20T19:02:20.113Z,89.33
2023-05-20T19:04:50.013Z,89.13
2023-05-20T19:07:19.890Z,89.19
2023-05-20T19:09:54.052Z,89.35
2023-05-20T19:12:26.680Z,89.57
2023-05-20T19:14:56.634Z,89.79
2023-05-20T19:17:26.755Z,89.96
2023-05-20T19:19:56.643Z,90.06
2023-05-20T19:22:26.812Z,90.42
2023-05-20T19:24:56.667Z,90.53
2023-05-20T19:27:29.161Z,90.48
2023-05-20T19:29:59.072Z,90.65
2023-05-20T19:32:28.937Z,90.86
2023-05-20T19:34:58.915Z,90.97
2023-05-20T19:37:28.716Z,91.12
2023-05-20T19:39:58.574Z,91.28
2023-05-20T19:42:31.061Z,91.27
2023-05-20T19:45:03.241Z,91.37
2023-05-20T19:47:33.320Z,91.55
2023-05-20T19:50:03.219Z,91.75
2023-05-20T19:52:36.560Z,91.67
2023-05-20T19:55:07.111Z,91.78
2023-05-20T19:57:39.603Z,91.69
2023-05-20T20:00:11.549Z,91.83
2023-05-20T20:02:41.772Z,91.96
2023-05-20T20:05:13.361Z,91.70
2023-05-20T20:07:43.386Z,91.42
2023-05-20T20:10:14.004Z,91.25
2023-05-20T20:12:46.448Z,90.85
2023-05-20T20:15:16.306Z,90.81
2023-05-20T20:17:52.158Z,90.37
2023-05-20T20:20:23.712Z,89.98
2023-05-20T20:22:53.624Z,89.88
2023-05-20T20:25:25.879Z,89.90
2023-05-20T20:27:58.324Z,89.43
2023-05-20T20:30:28.169Z,88.99
2023-05-20T20:32:58.028Z,89.20
2023-05-20T20:35:28.727Z,89.26
2023-05-20T20:37:58.582Z,89.20
2023-05-20T20:40:29.426Z,89.20
2023-05-20T20:43:05.077Z,89.14
2023-05-20T20:45:35.104Z,89.17
2023-05-20T20:48:05.739Z,89.33
2023-05-20T20:50:35.987Z,89.70
2023-05-20T20:53:05.958Z,90.02
2023-05-20T20:55:36.006Z,90.05
2023-05-20T20:58:08.595Z,90.05
2023-05-20T21:00:41.827Z,90.24
2023-05-20T21:03:12.164Z,90.40
2023-05-20T21:05:42.061Z,90.53
2023-05-20T21:08:13.425Z,90.42
2023-05-20T21:10:45.709Z,90.38
2023-05-20T21:13:18.166Z,90.24
2023-05-20T21:15:48.042Z,90.48
2023-05-20T21:18:22.013Z,90.56
2023-05-20T21:20:52.838Z,90.90
2023-05-20T21:23:23.520Z,91.17
2023-05-20T21:25:53.491Z,91.23
2023-05-20T21:28:26.088Z,91.13
2023-05-20T21:30:56.779Z,91.30
2023-05-20T21:33:26.689Z,91.41
2023-05-20T21:35:56.555Z,91.30
2023-05-20T21:38:26.508Z,91.21
2023-05-20T21:40:58.305Z,91.23
2023-05-20T21:43:33.280Z,91.08
2023-05-20T21:46:03.196Z,91.07
2023-05-20T21:48:33.133Z,90.73
2023-05-20T21:51:03.012Z,90.83
2023-05-20T21:53:32.883Z,90.77
2023-05-20T21:56:02.749Z,90.73
2023-05-20T21:58:41.084Z,90.52
2023-05-20T22:01:11.970Z,90.52
2023-05-20T22:03:48.749Z,90.52
2023-05-20T22:06:21.605Z,90.27
2023-05-20T22:08:52.020Z,90.41
2023-05-20T22:11:21.942Z,89.96
2023-05-20T22:13:54.878Z,89.96
2023-05-20T22:16:24.969Z,89.74
2023-05-20T22:18:55.848Z,89.62
2023-05-20T22:21:26.468Z,89.21
2023-05-20T22:23:56.518Z,89.15
2023-05-20T22:26:27.006Z,89.11
2023-05-20T22:28:59.442Z,89.16
2023-05-20T22:31:29.396Z,88.94
2023-05-20T22:33:59.770Z,88.89
2023-05-20T22:36:34.370Z,89.03
2023-05-20T22:39:06.863Z,89.17
2023-05-20T22:41:36.765Z,89.16
2023-05-20T22:44:09.430Z,89.30
2023-05-20T22:46:39.522Z,89.37
2023-05-20T22:49:10.458Z,89.27
2023-05-20T22:51:41.308Z,89.67
2023-05-20T22:54:11.126Z,89.87
2023-05-20T22:56:43.267Z,89.93
2023-05-20T22:59:15.995Z,90.31
2023-05-20T23:01:46.293Z,90.33
2023-05-20T23:04:16.347Z,90.50
2023-05-20T23:06:47.014Z,90.70
2023-05-20T23:09:16.849Z,90.39
2023-05-20T23:11:46.709Z,90.46
2023-05-20T23:14:20.240Z,90.93
2023-05-20T23:16:51.138Z,91.12
2023-05-20T23:19:21.097Z,91.32
2023-05-20T23:21:50.958Z,91.35
2023-05-20T23:24:20.855Z,91.28
2023-05-20T23:26:51.397Z,91.42
2023-05-20T23:29:24.007Z,91.83
2023-05-20T23:31:53.874Z,91.90
2023-05-20T23:34:23.732Z,91.95
2023-05-20T23:36:53.668Z,92.03
2023-05-20T23:39:23.713Z,92.06
2023-05-20T23:41:58.187Z,92.16
2023-05-20T23:44:31.426Z,92.57
2023-05-20T23:47:01.731Z,92.86
2023-05-20T23:49:32.318Z,93.02
2023-05-20T23:52:02.346Z,93.11
2023-05-20T23:54:34.455Z,93.13
2023-05-20T23:57:04.319Z,93.12
2023-05-20T23:59:36.767Z,93.21
